Time;durP1;ratioP1;P1;durP2;ratioP2;P2;SDS_P1;SDS_P2;PMS_P1;PMS_P2;Temp;Humidity;BMP_temperature;BMP_pressure;BME280_temperature;BME280_humidity;BME280_pressure;Samples;Min_cycle;Max_cycle;Signal;HPM_P1;HPM_P2
2023/10/22 00:01:21;;;;;;;5.43;4.43;;;;;;;9.49;100.00;97181.72;5095844;28;20235;-81
2023/10/22 00:03:49;;;;;;;4.60;4.20;;;;;;;9.46;100.00;97179.31;5077333;28;20216;-81
2023/10/22 00:06:16;;;;;;;4.73;4.07;;;;;;;9.45;100.00;97172.38;5095923;28;20216;-81
2023/10/22 00:08:42;;;;;;;4.73;4.10;;;;;;;9.45;100.00;97181.13;5095539;28;20339;-81
2023/10/22 00:11:09;;;;;;;5.30;4.80;;;;;;;9.43;100.00;97190.94;5095425;28;20712;-81
2023/10/22 00:13:37;;;;;;;6.67;4.80;;;;;;;9.41;100.00;97189.38;5094152;28;20211;-81
2023/10/22 00:16:03;;;;;;;5.53;4.63;;;;;;;9.39;100.00;97200.06;5096167;28;20208;-81
2023/10/22 00:18:30;;;;;;;5.33;4.60;;;;;;;9.38;100.00;97198.41;5096090;28;20297;-81
2023/10/22 00:20:56;;;;;;;6.63;4.63;;;;;;;9.34;100.00;97202.22;5096400;28;20233;-81
2023/10/22 00:23:23;;;;;;;5.83;4.50;;;;;;;9.31;100.00;97206.91;5095768;28;20208;-81
2023/10/22 00:25:49;;;;;;;5.57;4.80;;;;;;;9.32;100.00;97204.16;5099650;28;20210;-81
2023/10/22 00:28:16;;;;;;;5.93;4.87;;;;;;;9.38;100.00;97205.47;5099859;28;20214;-81
2023/10/22 00:30:47;;;;;;;5.30;4.80;;;;;;;9.39;100.00;97194.81;5099356;28;20226;-81
2023/10/22 00:33:14;;;;;;;6.93;4.87;;;;;;;9.39;100.00;97199.22;5099214;28;20205;-81
2023/10/22 00:35:40;;;;;;;4.70;3.87;;;;;;;9.41;100.00;97197.28;5099257;28;20208;-81
2023/10/22 00:38:07;;;;;;;4.70;4.10;;;;;;;9.40;100.00;97192.97;5099305;28;20207;-81
2023/10/22 00:40:33;;;;;;;6.30;4.37;;;;;;;9.43;100.00;97196.22;5097853;28;20209;-77
2023/10/22 00:43:04;;;;;;;6.73;3.87;;;;;;;9.47;100.00;97192.38;5098795;28;20212;-81
2023/10/22 00:45:36;;;;;;;5.63;3.80;;;;;;;9.43;100.00;97200.66;5099931;28;20478;-81
2023/10/22 00:48:04;;;;;;;4.83;3.50;;;;;;;9.43;100.00;97196.22;5098663;28;20216;-81
2023/10/22 00:50:31;;;;;;;4.83;3.60;;;;;;;9.41;100.00;97206.06;5099456;28;20234;-81
2023/10/22 00:52:58;;;;;;;5.57;3.37;;;;;;;9.38;100.00;97210.72;5099119;28;20208;-81
2023/10/22 00:55:25;;;;;;;4.20;3.10;;;;;;;9.34;100.00;97209.28;5101552;28;20207;-81
2023/10/22 00:57:51;;;;;;;3.47;3.17;;;;;;;9.32;100.00;97217.34;5105200;28;20221;-81
2023/10/22 01:00:21;;;;;;;4.77;3.10;;;;;;;9.29;100.00;97214.94;5105279;28;20237;-81
2023/10/22 01:02:47;;;;;;;4.00;3.07;;;;;;;9.28;100.00;97222.94;5105268;28;20238;-81
2023/10/22 01:05:15;;;;;;;3.00;2.70;;;;;;;9.31;100.00;97220.09;5105017;28;20210;-81
2023/10/22 01:07:42;;;;;;;4.63;2.87;;;;;;;9.29;100.00;97220.19;5104699;28;20213;-81
2023/10/22 01:10:09;;;;;;;3.60;2.93;;;;;;;9.29;100.00;97219.34;5104402;28;20226;-81
2023/10/22 01:12:37;;;;;;;4.10;2.80;;;;;;;9.28;100.00;97226.44;5103293;28;20643;-81
2023/10/22 01:15:06;;;;;;;3.97;2.60;;;;;;;9.24;100.00;97235.53;5103853;28;20675;-81
2023/10/22 01:17:32;;;;;;;3.40;3.10;;;;;;;9.21;100.00;97227.03;5103284;28;20245;-81
2023/10/22 01:19:59;;;;;;;2.47;2.23;;;;;;;9.19;100.00;97223.69;5102618;28;20214;-81
2023/10/22 01:22:27;;;;;;;3.10;2.80;;;;;;;9.17;100.00;97231.72;5102421;28;20227;-81
2023/10/22 01:24:54;;;;;;;4.67;2.57;;;;;;;9.22;100.00;97228.69;5102286;28;20591;-81
2023/10/22 01:27:21;;;;;;;4.33;2.50;;;;;;;9.21;100.00;97229.66;5100134;28;20318;-81
2023/10/22 01:29:48;;;;;;;4.50;2.53;;;;;;;9.17;100.00;97225.63;5099340;28;20704;-81
2023/10/22 01:32:14;;;;;;;2.73;2.20;;;;;;;9.17;100.00;97225.63;5099772;28;20599;-81
2023/10/22 01:34:41;;;;;;;2.90;2.50;;;;;;;9.16;100.00;97231.81;5099843;28;20208;-81
2023/10/22 01:37:07;;;;;;;2.43;2.23;;;;;;;9.18;100.00;97227.28;5099003;28;20211;-81
2023/10/22 01:39:34;;;;;;;3.27;2.37;;;;;;;9.19;100.00;97221.06;5099858;28;20210;-81
2023/10/22 01:42:02;;;;;;;2.17;1.97;;;;;;;9.15;100.00;97223.09;5099570;28;20314;-81
2023/10/22 01:44:28;;;;;;;2.17;2.00;;;;;;;9.10;100.00;97230.50;5100232;28;20233;-81
2023/10/22 01:46:54;;;;;;;2.83;2.50;;;;;;;9.07;100.00;97224.63;5100810;28;20209;-81
2023/10/22 01:49:21;;;;;;;3.93;1.97;;;;;;;9.07;100.00;97222.00;5100028;28;20230;-81
2023/10/22 01:51:48;;;;;;;2.07;1.97;;;;;;;9.01;100.00;97225.94;5100095;28;20237;-81
2023/10/22 01:54:15;;;;;;;2.23;1.80;;;;;;;8.94;100.00;97227.38;5099386;28;20215;-81
2023/10/22 01:56:41;;;;;;;2.53;2.20;;;;;;;8.91;100.00;97230.25;5099721;28;20225;-81
2023/10/22 01:59:09;;;;;;;1.90;1.70;;;;;;;8.85;100.00;97229.88;5099474;28;20242;-81
2023/10/22 02:01:36;;;;;;;2.70;1.87;;;;;;;8.81;100.00;97231.91;5100038;28;20244;-81
2023/10/22 02:04:02;;;;;;;4.30;2.20;;;;;;;8.82;100.00;97235.38;5100290;28;20210;-81
2023/10/22 02:06:29;;;;;;;3.37;2.00;;;;;;;8.77;100.00;97230.47;5100935;28;20222;-81
2023/10/22 02:08:56;;;;;;;2.37;2.07;;;;;;;8.77;100.00;97242.78;5100170;28;20677;-82
2023/10/22 02:11:22;;;;;;;2.80;2.10;;;;;;;8.74;100.00;97237.75;5099889;28;20236;-81
2023/10/22 02:13:49;;;;;;;3.10;1.77;;;;;;;8.74;100.00;97237.75;5100549;28;20225;-81
2023/10/22 02:16:17;;;;;;;2.93;2.03;;;;;;;8.69;100.00;97234.66;5100943;28;20204;-81
2023/10/22 02:18:43;;;;;;;2.27;2.07;;;;;;;8.70;100.00;97241.59;5101039;28;20213;-81
2023/10/22 02:21:10;;;;;;;3.27;2.13;;;;;;;8.67;100.00;97249.72;5101073;28;20233;-81
2023/10/22 02:23:38;;;;;;;3.57;2.10;;;;;;;8.67;100.00;97239.16;5099806;28;20213;-81
2023/10/22 02:26:05;;;;;;;2.63;2.20;;;;;;;8.75;100.00;97250.00;5101030;28;20207;-81
2023/10/22 02:28:32;;;;;;;4.03;2.10;;;;;;;8.74;100.00;97253.53;5101072;28;20285;-81
2023/10/22 02:30:59;;;;;;;2.10;1.90;;;;;;;8.71;100.00;97252.00;5100581;28;20645;-82
2023/10/22 02:33:27;;;;;;;2.10;1.87;;;;;;;8.73;100.00;97259.78;5100468;28;20213;-81
2023/10/22 02:35:54;;;;;;;2.87;1.97;;;;;;;8.71;100.00;97253.78;5100623;28;20211;-81
2023/10/22 02:38:21;;;;;;;3.17;2.00;;;;;;;8.75;100.00;97265.78;5100825;28;20208;-81
2023/10/22 02:40:49;;;;;;;2.37;1.90;;;;;;;8.75;100.00;97265.78;5100476;28;20220;-81
2023/10/22 02:43:16;;;;;;;3.43;2.47;;;;;;;8.74;100.00;97269.34;5100711;28;20205;-81
2023/10/22 02:45:49;;;;;;;3.97;1.93;;;;;;;8.72;100.00;97271.28;5101663;28;20215;-81
2023/10/22 02:48:16;;;;;;;2.63;1.73;;;;;;;8.68;100.00;97272.44;5100085;28;20213;-81
2023/10/22 02:50:44;;;;;;;3.00;2.20;;;;;;;8.68;100.00;97270.66;5100767;28;20252;-81
2023/10/22 02:53:11;;;;;;;3.93;1.83;;;;;;;8.69;100.00;97276.78;5101072;28;20209;-81
2023/10/22 02:55:37;;;;;;;3.30;1.80;;;;;;;8.64;100.00;97282.38;5101669;28;20213;-81
2023/10/22 02:58:04;;;;;;;2.03;1.77;;;;;;;8.66;100.00;97287.53;5101534;28;20498;-81
2023/10/22 03:00:30;;;;;;;1.83;1.67;;;;;;;8.70;100.00;97283.72;5101269;28;20210;-80
2023/10/22 03:02:57;;;;;;;2.17;1.97;;;;;;;8.76;100.00;97291.19;5101218;28;20217;-81
2023/10/22 03:05:23;;;;;;;4.27;1.80;;;;;;;8.83;100.00;97295.03;5101991;28;20211;-81
2023/10/22 03:07:51;;;;;;;2.10;1.90;;;;;;;8.83;100.00;97297.66;5103300;28;20217;-80
2023/10/22 03:10:18;;;;;;;1.80;1.70;;;;;;;8.82;100.00;97303.88;5101668;28;20615;-81
2023/10/22 03:12:44;;;;;;;1.93;1.73;;;;;;;8.81;100.00;97302.22;5097927;28;20247;-81
2023/10/22 03:15:11;;;;;;;2.63;1.70;;;;;;;8.77;100.00;97308.66;5098095;28;20213;-81
2023/10/22 03:17:38;;;;;;;2.03;1.60;;;;;;;8.73;100.00;97315.09;5097255;28;20305;-81
2023/10/22 03:20:06;;;;;;;1.83;1.50;;;;;;;8.67;100.00;97313.78;5098098;28;20213;-81
2023/10/22 03:22:33;;;;;;;2.43;1.57;;;;;;;8.61;100.00;97326.53;5097695;28;20232;-81
2023/10/22 03:25:05;;;;;;;2.10;1.70;;;;;;;8.59;100.00;97325.81;5097924;28;20206;-81
2023/10/22 03:27:32;;;;;;;2.50;1.67;;;;;;;8.55;100.00;97333.13;5097940;28;20554;-81
2023/10/22 03:29:58;;;;;;;2.33;1.73;;;;;;;8.57;100.00;97335.66;5097938;28;20251;-81
2023/10/22 03:32:25;;;;;;;2.20;1.80;;;;;;;8.51;100.00;97334.28;5098238;28;20243;-81
2023/10/22 03:34:51;;;;;;;2.60;1.50;;;;;;;8.52;100.00;97338.59;5098591;28;20662;-81
2023/10/22 03:37:17;;;;;;;2.33;1.57;;;;;;;8.51;100.00;97344.00;5098920;28;20608;-81
2023/10/22 03:39:44;;;;;;;2.93;1.60;;;;;;;8.50;100.00;97334.41;5098079;28;20203;-81
2023/10/22 03:42:12;;;;;;;2.20;2.00;;;;;;;8.52;100.00;97332.50;5097046;28;20289;-81
2023/10/22 03:44:38;;;;;;;2.07;1.80;;;;;;;8.58;100.00;97334.69;5098686;28;20211;-81
2023/10/22 03:47:05;;;;;;;3.27;1.60;;;;;;;8.59;100.00;97333.72;5098844;28;20220;-81
2023/10/22 03:49:31;;;;;;;1.93;1.47;;;;;;;8.56;100.00;97333.97;5098809;28;20212;-81
2023/10/22 03:51:58;;;;;;;2.23;1.43;;;;;;;8.56;100.00;97336.59;5096990;28;20227;-81
2023/10/22 03:54:24;;;;;;;2.10;1.90;;;;;;;8.53;100.00;97335.03;5099706;28;20232;-81
2023/10/22 03:56:51;;;;;;;2.10;1.90;;;;;;;8.52;100.00;97341.22;5104186;28;20210;-81
2023/10/22 03:59:19;;;;;;;3.57;1.50;;;;;;;8.52;100.00;97337.78;5107094;28;20210;-81
2023/10/22 04:01:45;;;;;;;1.60;1.50;;;;;;;8.54;100.00;97333.22;5108877;28;20226;-81
2023/10/22 04:04:12;;;;;;;1.97;1.63;;;;;;;8.52;100.00;97332.50;5108382;28;20209;-81
2023/10/22 04:06:38;;;;;;;2.30;1.50;;;;;;;8.49;100.00;97345.88;5108949;28;20215;-81
2023/10/22 04:09:05;;;;;;;1.97;1.53;;;;;;;8.54;100.00;97341.97;5108911;28;20213;-81
2023/10/22 04:11:31;;;;;;;2.60;1.50;;;;;;;8.61;100.00;97345.84;5108591;28;20718;-81
2023/10/22 04:13:58;;;;;;;1.83;1.23;;;;;;;8.67;100.00;97336.63;5107965;28;20243;-81
2023/10/22 04:16:25;;;;;;;1.17;1.07;;;;;;;8.68;100.00;97347.06;5105721;28;20210;-81
2023/10/22 04:18:52;;;;;;;3.03;1.50;;;;;;;8.66;100.00;97345.50;5105040;28;20218;-81
2023/10/22 04:21:18;;;;;;;2.73;1.40;;;;;;;8.65;100.00;97354.34;5108861;28;20228;-81
2023/10/22 04:23:46;;;;;;;1.60;1.50;;;;;;;8.62;100.00;97351.94;5108790;28;20560;-81
2023/10/22 04:26:13;;;;;;;2.50;1.30;;;;;;;8.57;100.00;97360.16;5108457;28;20218;-81
2023/10/22 04:28:40;;;;;;;2.50;1.50;;;;;;;8.59;100.00;97360.06;5108350;28;20275;-81
2023/10/22 04:31:07;;;;;;;1.40;1.27;;;;;;;8.57;100.00;97351.44;5108601;28;20256;-81
2023/10/22 04:33:35;;;;;;;1.40;1.30;;;;;;;8.59;100.00;97362.69;5108152;28;20277;-81
2023/10/22 04:36:02;;;;;;;4.43;1.60;;;;;;;8.69;100.00;97364.53;5108705;28;20215;-81
2023/10/22 04:38:29;;;;;;;2.77;1.43;;;;;;;8.73;100.00;97367.78;5109009;28;20206;-81
2023/10/22 04:40:56;;;;;;;1.30;1.10;;;;;;;8.75;100.00;97368.53;5109235;28;20232;-81
2023/10/22 04:43:22;;;;;;;1.50;1.30;;;;;;;8.80;100.00;97372.50;5108071;28;20214;-81
2023/10/22 04:45:49;;;;;;;2.10;1.23;;;;;;;8.88;100.00;97371.94;5108708;28;20653;-81
2023/10/22 04:48:16;;;;;;;2.13;1.67;;;;;;;8.78;100.00;97378.81;5108716;28;20220;-81
2023/10/22 04:50:44;;;;;;;3.33;1.63;;;;;;;8.75;100.00;97379.06;5107870;28;20233;-81
2023/10/22 04:53:11;;;;;;;1.50;1.37;;;;;;;8.71;100.00;97375.81;5107849;28;20209;-81
2023/10/22 04:55:37;;;;;;;1.83;1.50;;;;;;;8.71;100.00;97377.59;5108385;28;20208;-81
2023/10/22 04:58:04;;;;;;;2.33;1.50;;;;;;;8.66;100.00;97385.00;5108178;28;20213;-81
2023/10/22 05:00:30;;;;;;;1.63;1.53;;;;;;;8.65;100.00;97391.22;5108348;28;20206;-81
2023/10/22 05:02:57;;;;;;;1.80;1.17;;;;;;;8.60;100.00;97390.72;5107187;28;20223;-81
2023/10/22 05:05:23;;;;;;;2.50;1.60;;;;;;;8.59;100.00;97391.66;5108262;28;20218;-81
2023/10/22 05:07:51;;;;;;;1.83;1.63;;;;;;;8.60;100.00;97393.34;5107681;28;20214;-81
2023/10/22 05:10:18;;;;;;;2.30;1.60;;;;;;;8.61;100.00;97398.50;5107085;28;20243;-81
2023/10/22 05:12:44;;;;;;;2.17;1.40;;;;;;;8.59;100.00;97400.44;5106884;28;20249;-81
2023/10/22 05:15:11;;;;;;;3.03;1.43;;;;;;;8.59;100.00;97402.19;5107018;28;20214;-81
2023/10/22 05:17:37;;;;;;;3.07;1.40;;;;;;;8.59;100.00;97396.94;5107500;28;20709;-81
2023/10/22 05:20:05;;;;;;;3.43;1.60;;;;;;;8.64;100.00;97402.72;5106334;28;20296;-81
2023/10/22 05:22:33;;;;;;;1.77;1.30;;;;;;;8.55;100.00;97400.72;5105730;28;20230;-81
2023/10/22 05:25:01;;;;;;;2.07;1.60;;;;;;;8.55;100.00;97398.97;5108080;28;20221;-81
2023/10/22 05:27:27;;;;;;;3.07;1.60;;;;;;;8.49;100.00;97403.81;5108167;28;20207;-81
2023/10/22 05:29:54;;;;;;;2.13;1.77;;;;;;;8.50;100.00;97408.16;5107626;28;20218;-81
2023/10/22 05:32:20;;;;;;;2.13;1.50;;;;;;;8.41;100.00;97411.44;5107391;28;20230;-81
2023/10/22 05:34:47;;;;;;;2.10;1.73;;;;;;;8.41;100.00;97409.66;5107585;28;20217;-81
2023/10/22 05:37:13;;;;;;;2.87;1.70;;;;;;;8.40;100.00;97415.03;5107849;28;20603;-81
2023/10/22 05:39:41;;;;;;;5.07;1.50;;;;;;;8.40;100.00;97417.66;5106725;28;20213;-81
2023/10/22 05:42:09;;;;;;;2.17;1.30;;;;;;;8.37;100.00;97423.13;5105634;28;20297;-81
2023/10/22 05:44:36;;;;;;;2.50;1.53;;;;;;;8.42;100.00;97423.66;5106950;28;20214;-81
2023/10/22 05:47:03;;;;;;;1.30;1.20;;;;;;;8.42;100.00;97426.28;5107394;28;20210;-81
2023/10/22 05:49:30;;;;;;;2.70;1.20;;;;;;;8.38;100.00;97425.66;5106659;28;20216;-81
2023/10/22 05:51:56;;;;;;;1.47;1.20;;;;;;;8.40;100.00;97429.00;5107305;28;20264;-81
2023/10/22 05:54:23;;;;;;;1.60;1.50;;;;;;;8.41;100.00;97429.88;5106956;28;20240;-81
2023/10/22 05:56:49;;;;;;;3.07;1.20;;;;;;;8.35;100.00;97441.69;5106208;28;20209;-81
2023/10/22 05:59:17;;;;;;;2.50;1.30;;;;;;;8.36;100.00;97447.78;5105033;28;20211;-81
2023/10/22 06:01:44;;;;;;;2.47;1.17;;;;;;;8.35;100.00;97449.59;5105047;28;20233;-81
2023/10/22 06:04:10;;;;;;;2.90;1.20;;;;;;;8.32;100.00;97446.34;5105065;28;20211;-81
2023/10/22 06:06:37;;;;;;;2.30;1.20;;;;;;;8.27;100.00;97451.06;5105059;28;20210;-81
2023/10/22 06:09:04;;;;;;;2.03;1.30;;;;;;;8.27;100.00;97453.72;5104522;28;20226;-81
2023/10/22 06:11:30;;;;;;;1.23;1.10;;;;;;;8.33;100.00;97463.81;5104537;28;20237;-81
2023/10/22 06:13:57;;;;;;;1.73;1.00;;;;;;;8.33;100.00;97463.81;5104075;28;20208;-81
2023/10/22 06:16:25;;;;;;;2.00;1.20;;;;;;;8.38;100.00;97456.44;5086179;28;20229;-81
2023/10/22 06:18:51;;;;;;;2.40;1.17;;;;;;;8.43;100.00;97472.72;5105122;28;20585;-81
2023/10/22 06:21:18;;;;;;;3.13;1.20;;;;;;;8.47;100.00;97466.28;5104944;28;20249;-81
2023/10/22 06:23:44;;;;;;;1.67;1.27;;;;;;;8.52;100.00;97472.06;5104036;28;20205;-81
2023/10/22 06:26:11;;;;;;;2.00;1.30;;;;;;;8.62;100.00;97478.38;5104042;28;20684;-81
2023/10/22 06:28:38;;;;;;;4.53;1.40;;;;;;;8.67;100.00;97481.50;5103364;28;20628;-81
2023/10/22 06:31:06;;;;;;;2.33;1.20;;;;;;;8.75;100.00;97489.72;5102659;28;20263;-81
2023/10/22 06:33:35;;;;;;;4.30;1.10;;;;;;;8.79;100.00;97492.00;5102825;28;20210;-81
2023/10/22 06:36:11;;;;;;;2.67;1.30;;;;;;;8.84;100.00;97491.66;5103247;28;20206;-81
2023/10/22 06:38:38;;;;;;;2.37;1.00;;;;;;;8.86;100.00;97495.88;5104893;28;20220;-81
2023/10/22 06:41:05;;;;;;;3.37;0.93;;;;;;;8.95;100.00;97502.28;5105319;28;20229;-81
2023/10/22 06:43:32;;;;;;;1.03;0.93;;;;;;;8.99;100.00;97496.66;5103470;28;20239;-82
2023/10/22 06:45:59;;;;;;;2.67;1.10;;;;;;;9.05;100.00;97501.50;5103728;28;20206;-81
2023/10/22 06:48:26;;;;;;;1.63;0.77;;;;;;;9.12;100.00;97512.44;5103831;28;20214;-80
2023/10/22 06:50:54;;;;;;;3.17;1.10;;;;;;;9.17;100.00;97510.31;5102927;28;20697;-81
2023/10/22 06:53:20;;;;;;;1.00;0.80;;;;;;;9.20;100.00;97510.06;5102812;28;20294;-81
2023/10/22 06:55:47;;;;;;;2.10;0.97;;;;;;;9.25;100.00;97507.94;5104391;28;20209;-82
2023/10/22 06:58:13;;;;;;;3.70;1.07;;;;;;;9.33;100.00;97506.44;5103541;28;20212;-80
2023/10/22 07:00:39;;;;;;;1.93;0.80;;;;;;;9.38;100.00;97506.94;5102384;28;20209;-80
2023/10/22 07:03:06;;;;;;;3.53;1.00;;;;;;;9.44;100.00;97510.91;5103759;28;20220;-81
2023/10/22 07:05:32;;;;;;;1.43;0.87;;;;;;;9.47;100.00;97508.03;5104615;28;20211;-81
2023/10/22 07:08:00;;;;;;;2.67;0.90;;;;;;;9.52;100.00;97517.28;5105597;28;20209;-81
2023/10/22 07:10:27;;;;;;;2.70;1.00;;;;;;;9.61;100.00;97513.94;5104536;28;20209;-81
2023/10/22 07:12:54;;;;;;;0.90;0.73;;;;;;;9.72;100.00;97515.81;5103937;28;20241;-79
2023/10/22 07:15:24;;;;;;;3.03;1.07;;;;;;;9.82;100.00;97519.41;5103917;28;20210;-81
2023/10/22 07:17:50;;;;;;;1.55;0.90;;;;;;;9.99;100.00;97513.69;5101641;28;20432;-79
2023/10/22 07:20:17;;;;;;;4.57;1.23;;;;;;;9.98;100.00;97520.75;5103969;28;20207;-81
2023/10/22 07:22:44;;;;;;;7.17;1.17;;;;;;;10.07;100.00;97532.47;5103309;28;20227;-82
2023/10/22 07:25:11;;;;;;;1.27;0.70;;;;;;;10.11;100.00;97531.28;5105016;28;20203;-81
2023/10/22 07:27:38;;;;;;;2.50;1.00;;;;;;;10.27;100.00;97537.06;5112265;28;20266;-81
2023/10/22 07:30:06;;;;;;;2.90;0.93;;;;;;;10.36;100.00;97542.47;5113636;28;20300;-82
2023/10/22 07:32:32;;;;;;;2.17;0.87;;;;;;;10.53;100.00;97538.53;5095805;28;20286;-82
2023/10/22 07:34:59;;;;;;;2.83;0.90;;;;;;;10.63;100.00;97531.53;5118837;28;20201;-82
2023/10/22 07:37:26;;;;;;;1.73;0.83;;;;;;;10.71;100.00;97547.66;5119433;28;20216;-81
2023/10/22 07:39:52;;;;;;;2.67;0.80;;;;;;;10.79;100.00;97545.22;5120200;28;20189;-81
2023/10/22 07:42:23;;;;;;;1.97;0.60;;;;;;;10.90;100.00;97538.09;5116933;28;20295;-81
2023/10/22 07:44:51;;;;;;;2.27;0.70;;;;;;;10.97;100.00;97538.47;5115588;28;20310;-81
2023/10/22 07:47:17;;;;;;;2.63;0.87;;;;;;;11.16;100.00;97536.88;5115977;28;20207;-81
2023/10/22 07:49:44;;;;;;;4.57;0.90;;;;;;;11.21;100.00;97542.66;5116223;28;20217;-82
2023/10/22 07:52:10;;;;;;;1.60;0.73;;;;;;;11.31;100.00;97546.22;5115052;28;20256;-81
2023/10/22 07:54:37;;;;;;;3.50;0.77;;;;;;;11.39;100.00;97550.88;5112528;28;20206;-81
2023/10/22 07:57:05;;;;;;;2.47;0.73;;;;;;;11.50;100.00;97558.78;5105334;28;20203;-81
2023/10/22 07:59:33;;;;;;;3.30;0.87;;;;;;;11.57;100.00;97549.38;5098031;28;20209;-81
2023/10/22 08:01:59;;;;;;;2.20;0.70;;;;;;;11.62;100.00;97549.88;5111842;28;20236;-82
2023/10/22 08:04:25;;;;;;;1.37;0.60;;;;;;;11.69;100.00;97548.41;5118940;28;20262;-82
2023/10/22 08:06:52;;;;;;;2.63;0.80;;;;;;;11.77;100.00;97552.09;5119823;28;20210;-80
2023/10/22 08:09:18;;;;;;;1.43;0.73;;;;;;;11.78;100.00;97547.63;5120650;28;20206;-80
2023/10/22 08:11:45;;;;;;;3.53;0.80;;;;;;;11.88;100.00;97553.84;5120240;28;20241;-80
2023/10/22 08:14:11;;;;;;;2.20;0.93;;;;;;;11.96;100.00;97564.63;5119976;28;20250;-80
2023/10/22 08:16:39;;;;;;;3.80;0.70;;;;;;;12.01;100.00;97557.16;5120139;28;20197;-81
2023/10/22 08:19:06;;;;;;;1.80;0.50;;;;;;;12.10;100.00;97553.75;5120367;28;20253;-81
2023/10/22 08:21:32;;;;;;;1.83;0.80;;;;;;;12.14;100.00;97558.63;5118829;28;20422;-81
2023/10/22 08:23:59;;;;;;;2.37;0.70;;;;;;;12.28;100.00;97557.47;5119482;28;20209;-81
2023/10/22 08:26:26;;;;;;;3.00;0.83;;;;;;;12.29;100.00;97559.16;5121078;28;20202;-82
2023/10/22 08:28:52;;;;;;;2.80;0.73;;;;;;;12.38;100.00;97558.34;5121014;28;20229;-81
2023/10/22 08:31:19;;;;;;;2.67;0.80;;;;;;;12.38;100.00;97561.00;5120759;28;20226;-81
2023/10/22 08:33:46;;;;;;;1.80;0.60;;;;;;;12.37;100.00;97559.34;5120964;28;20220;-81
2023/10/22 08:36:13;;;;;;;2.53;0.70;;;;;;;12.42;100.00;97565.09;5121150;28;20206;-81
2023/10/22 08:38:40;;;;;;;3.20;0.80;;;;;;;12.52;99.10;97561.50;5119425;28;20201;-83
2023/10/22 08:41:14;;;;;;;1.80;0.73;;;;;;;12.70;96.94;97553.78;5120825;28;20282;-83
2023/10/22 08:43:45;;;;;;;1.23;0.57;;;;;;;12.75;96.73;97559.53;5120199;28;20244;-85
2023/10/22 08:46:12;;;;;;;4.27;0.80;;;;;;;12.83;97.79;97572.97;5119967;28;20217;-79
2023/10/22 08:48:40;;;;;;;5.60;1.03;;;;;;;12.91;98.54;97573.97;5120459;28;20207;-83
2023/10/22 08:51:10;;;;;;;2.37;0.70;;;;;;;13.03;93.21;97569.44;5119163;28;20213;-83
2023/10/22 08:53:37;;;;;;;3.13;0.90;;;;;;;13.13;94.16;97575.59;5118441;28;20204;-83
2023/10/22 08:56:04;;;;;;;1.63;0.60;;;;;;;13.15;92.82;97565.72;5119631;28;20201;-84
2023/10/22 08:58:32;;;;;;;1.70;0.80;;;;;;;13.26;90.01;97557.66;5119535;28;20266;-84
2023/10/22 09:00:58;;;;;;;3.23;0.70;;;;;;;13.35;89.28;97572.75;5119545;28;20230;-84
2023/10/22 09:03:28;;;;;;;2.37;1.00;;;;;;;13.36;88.80;97569.09;5119261;28;20255;-84
2023/10/22 09:05:54;;;;;;;2.20;0.70;;;;;;;13.42;89.26;97582.69;5119907;28;20200;-84
2023/10/22 09:08:41;;;;;;;4.93;1.03;;;;;;;13.49;86.92;97567.88;5119589;28;20275;-82
2023/10/22 09:11:13;;;;;;;2.70;0.80;;;;;;;13.61;84.44;97563.28;5119357;28;20240;-83
2023/10/22 09:13:39;;;;;;;2.53;1.10;;;;;;;13.60;85.17;97573.06;5119085;28;20187;-83
2023/10/22 09:16:06;;;;;;;4.70;0.80;;;;;;;13.77;84.96;97563.56;5119646;28;20251;-83
2023/10/22 09:18:33;;;;;;;1.33;0.60;;;;;;;13.76;85.03;97572.53;5119287;28;20266;-83
2023/10/22 09:21:06;;;;;;;4.57;0.80;;;;;;;13.83;84.45;97570.97;5119277;28;20278;-83
2023/10/22 09:23:34;;;;;;;1.13;0.70;;;;;;;13.84;85.49;97576.16;5118809;28;20200;-83
2023/10/22 09:26:00;;;;;;;4.07;0.80;;;;;;;13.83;83.51;97565.66;5119270;28;20258;-83
2023/10/22 09:28:29;;;;;;;1.87;0.70;;;;;;;13.83;84.19;97570.97;5118587;28;20209;-83
2023/10/22 09:30:57;;;;;;;5.07;1.23;;;;;;;13.97;84.37;97581.19;5118819;28;20209;-83
2023/10/22 09:33:32;;;;;;;1.90;0.70;;;;;;;13.93;85.98;97574.50;5118477;28;20217;-83
2023/10/22 09:36:00;;;;;;;2.37;0.70;;;;;;;14.08;79.40;97543.84;5119104;28;20256;-83
2023/10/22 09:38:48;;;;;;;3.27;1.37;;;;;;;14.15;79.38;97555.56;5118922;28;20275;-83
2023/10/22 09:41:27;;;;;;;1.53;0.70;;;;;;;14.20;79.80;97561.34;5118643;28;20228;-83
2023/10/22 09:43:54;;;;;;;1.67;0.60;;;;;;;14.25;80.46;97567.91;5118390;28;20193;-83
2023/10/22 09:46:21;;;;;;;1.07;0.80;;;;;;;14.29;79.41;97561.31;5118633;28;20192;-84
2023/10/22 09:48:48;;;;;;;2.40;0.90;;;;;;;14.35;80.00;97560.75;5118917;28;20260;-83
2023/10/22 09:51:17;;;;;;;2.90;0.80;;;;;;;14.35;80.58;97567.91;5118646;28;20237;-83
2023/10/22 09:53:52;;;;;;;2.10;0.97;;;;;;;14.49;78.62;97568.28;5118226;28;20245;-83
2023/10/22 09:56:20;;;;;;;2.43;0.90;;;;;;;14.48;77.71;97566.59;5109723;28;20216;-83
2023/10/22 09:58:49;;;;;;;2.10;0.70;;;;;;;14.53;76.46;97555.53;5105218;28;20219;-83
2023/10/22 10:01:16;;;;;;;1.63;0.83;;;;;;;14.51;77.07;97566.34;5104628;28;20232;-83
2023/10/22 10:03:43;;;;;;;3.90;0.83;;;;;;;14.61;79.12;97583.06;5104286;28;20190;-77
2023/10/22 10:06:10;;;;;;;1.07;0.97;;;;;;;14.80;77.82;97571.56;5104072;28;20243;-83
2023/10/22 10:08:38;;;;;;;2.77;0.80;;;;;;;14.90;75.67;97556.41;5101918;28;20220;-82
2023/10/22 10:11:09;;;;;;;3.90;0.77;;;;;;;14.81;76.42;97573.22;5098113;28;20490;-82
2023/10/22 10:13:36;;;;;;;3.07;0.70;;;;;;;14.80;75.91;97569.72;5105111;28;20233;-83
2023/10/22 10:16:05;;;;;;;2.23;1.13;;;;;;;14.82;75.12;97570.44;5110806;28;20207;-83
2023/10/22 10:19:00;;;;;;;3.50;0.70;;;;;;;14.86;76.37;97565.66;5113520;28;20204;-83
2023/10/22 10:21:40;;;;;;;1.43;0.80;;;;;;;14.91;75.52;97558.06;5116353;28;20281;-84
2023/10/22 10:24:21;;;;;;;3.30;0.90;;;;;;;14.95;76.13;97567.44;5115729;28;20240;-82
2023/10/22 10:26:50;;;;;;;1.70;0.80;;;;;;;15.06;74.05;97556.59;5117199;28;20207;-81
2023/10/22 10:29:18;;;;;;;1.20;0.50;;;;;;;15.13;73.98;97563.00;5112919;28;20215;-84
2023/10/22 10:31:47;;;;;;;1.53;0.83;;;;;;;15.18;70.86;97544.75;5116534;28;20277;-80
2023/10/22 10:34:22;;;;;;;1.73;0.70;;;;;;;15.12;72.12;97554.19;5116716;28;20206;-80
2023/10/22 10:36:49;;;;;;;1.23;0.73;;;;;;;15.21;74.05;97568.44;5117753;28;20178;-83
2023/10/22 10:39:38;;;;;;;2.83;0.93;;;;;;;15.46;73.57;97568.59;5117703;28;20197;-83
2023/10/22 10:42:06;;;;;;;1.63;0.80;;;;;;;15.56;69.96;97544.56;5115849;28;20318;-83
2023/10/22 10:44:53;;;;;;;1.83;0.70;;;;;;;15.74;69.46;97553.41;5112232;28;20204;-81
2023/10/22 10:47:33;;;;;;;2.73;0.83;;;;;;;15.94;69.71;97549.63;5113805;28;20250;-82
2023/10/22 10:50:03;;;;;;;3.67;0.80;;;;;;;16.19;66.64;97529.16;5110587;28;20202;-82
2023/10/22 10:52:31;;;;;;;2.60;0.80;;;;;;;16.40;67.03;97537.66;5113500;28;20278;-82
2023/10/22 10:55:02;;;;;;;2.77;0.70;;;;;;;16.63;67.22;97538.81;5107616;28;20266;-81
2023/10/22 10:57:37;;;;;;;2.37;0.70;;;;;;;16.89;64.88;97528.97;5100763;28;20213;-82
2023/10/22 11:00:05;;;;;;;1.70;0.90;;;;;;;17.11;62.08;97516.88;5098739;28;20209;-83
2023/10/22 11:02:40;;;;;;;2.13;0.97;;;;;;;17.09;62.24;97522.41;5095575;28;20230;-82
2023/10/22 11:05:07;;;;;;;1.90;0.50;;;;;;;17.05;61.93;97513.03;5101650;28;20291;-83
2023/10/22 11:07:34;;;;;;;1.50;0.60;;;;;;;16.90;61.86;97525.31;5101387;28;20210;-83
2023/10/22 11:10:08;;;;;;;1.73;0.70;;;;;;;16.83;60.16;97500.22;5101061;28;20738;-82
2023/10/22 11:12:36;;;;;;;3.17;1.20;;;;;;;16.96;60.83;97508.63;5100499;28;20241;-82
2023/10/22 11:15:02;;;;;;;2.37;0.87;;;;;;;17.14;61.39;97509.38;5102281;28;20218;-82
2023/10/22 11:17:29;;;;;;;2.00;0.67;;;;;;;17.35;61.84;97523.16;5117200;28;20348;-82
2023/10/22 11:19:55;;;;;;;4.00;0.90;;;;;;;17.31;60.14;97524.47;5116934;28;20195;-83
2023/10/22 11:22:23;;;;;;;2.87;0.70;;;;;;;17.11;58.24;97503.53;5108402;28;20230;-83
2023/10/22 11:24:51;;;;;;;4.30;1.00;;;;;;;17.04;59.29;97514.03;5115717;28;20195;-82
2023/10/22 11:27:18;;;;;;;1.87;0.70;;;;;;;16.89;58.92;97507.59;5113375;28;20253;-82
2023/10/22 11:29:47;;;;;;;2.97;0.70;;;;;;;16.84;58.06;97493.94;5109968;28;20208;-82
2023/10/22 11:32:15;;;;;;;2.10;0.80;;;;;;;16.79;59.15;97509.56;5112254;28;20218;-82
2023/10/22 11:34:49;;;;;;;3.83;1.10;;;;;;;16.91;59.21;97504.78;5122866;28;20219;-82